createdAt,value
2018-06-23T00:01:12.741Z,3.10
2018-06-23T00:03:41.116Z,2.67
2018-06-23T00:06:09.500Z,3.23
2018-06-23T00:08:38.029Z,2.60
2018-06-23T00:11:06.457Z,2.57
2018-06-23T00:13:34.841Z,2.23
2018-06-23T00:16:03.263Z,2.27
2018-06-23T00:18:31.657Z,2.33
2018-06-23T00:21:00.086Z,2.30
2018-06-23T00:23:28.541Z,2.67
2018-06-23T00:26:02.411Z,2.40
2018-06-23T00:28:30.864Z,2.40
2018-06-23T00:30:59.254Z,2.17
2018-06-23T00:33:27.635Z,2.50
2018-06-23T00:35:56.609Z,2.50
2018-06-23T00:38:25.003Z,2.50
2018-06-23T00:40:53.466Z,3.00
2018-06-23T00:43:21.850Z,3.43
2018-06-23T00:45:50.201Z,2.40
2018-06-23T00:48:18.582Z,3.00
2018-06-23T00:50:46.963Z,3.07
2018-06-23T00:53:15.325Z,2.40
2018-06-23T00:55:43.725Z,2.73
2018-06-23T00:58:12.091Z,3.17
2018-06-23T01:00:40.448Z,2.13
2018-06-23T01:03:08.974Z,3.27
2018-06-23T01:05:37.332Z,3.17
2018-06-23T01:08:05.745Z,2.67
2018-06-23T01:10:33.998Z,2.10
2018-06-23T01:13:02.371Z,2.10
2018-06-23T01:15:30.759Z,2.20
2018-06-23T01:17:59.161Z,2.50
2018-06-23T01:20:27.550Z,3.13
2018-06-23T01:22:55.910Z,3.17
2018-06-23T01:25:24.275Z,2.83
2018-06-23T01:27:52.630Z,2.97
2018-06-23T01:30:20.984Z,2.33
2018-06-23T01:32:49.508Z,2.40
2018-06-23T01:35:17.886Z,3.20
2018-06-23T01:37:46.240Z,3.37
2018-06-23T01:40:14.610Z,2.83
2018-06-23T01:42:42.967Z,2.73
2018-06-23T01:45:11.350Z,2.50
2018-06-23T01:47:39.711Z,2.87
2018-06-23T01:50:08.231Z,2.67
2018-06-23T01:52:36.576Z,2.77
2018-06-23T01:55:04.690Z,2.73
2018-06-23T01:57:33.123Z,3.00
2018-06-23T02:00:01.476Z,3.27
2018-06-23T02:02:29.827Z,4.03
2018-06-23T02:04:58.231Z,2.60
2018-06-23T02:07:26.587Z,4.03
2018-06-23T02:09:54.954Z,2.90
2018-06-23T02:12:23.315Z,3.10
2018-06-23T02:14:57.133Z,2.83
2018-06-23T02:17:31.031Z,2.87
2018-06-23T02:20:04.682Z,3.37
2018-06-23T02:22:38.432Z,3.20
2018-06-23T02:25:12.063Z,3.40
2018-06-23T02:27:45.736Z,4.40
2018-06-23T02:30:19.357Z,3.90
2018-06-23T02:32:51.939Z,3.20
2018-06-23T02:35:21.479Z,3.47
2018-06-23T02:37:49.856Z,3.80
2018-06-23T02:40:18.453Z,3.70
2018-06-23T02:42:46.803Z,3.60
2018-06-23T02:45:15.167Z,3.70
2018-06-23T02:47:43.708Z,2.70
2018-06-23T02:50:12.063Z,2.80
2018-06-23T02:52:40.407Z,3.30
2018-06-23T02:55:08.814Z,2.83
2018-06-23T02:57:37.159Z,2.60
2018-06-23T03:00:05.603Z,2.97
2018-06-23T03:02:33.984Z,3.20
2018-06-23T03:05:02.384Z,3.30
2018-06-23T03:07:30.771Z,3.93
2018-06-23T03:09:59.151Z,2.90
2018-06-23T03:12:27.517Z,4.90
2018-06-23T03:14:55.931Z,4.50
2018-06-23T03:17:24.270Z,4.13
2018-06-23T03:19:52.649Z,6.00
2018-06-23T03:22:21.019Z,4.70
2018-06-23T03:24:49.559Z,5.27
2018-06-23T03:27:17.602Z,5.50
2018-06-23T03:29:45.948Z,5.53
2018-06-23T03:32:14.499Z,5.70
2018-06-23T03:34:42.874Z,5.40
2018-06-23T03:37:11.284Z,4.10
2018-06-23T03:39:39.815Z,4.20
2018-06-23T03:42:08.182Z,4.80
2018-06-23T03:44:36.555Z,4.60
2018-06-23T03:47:05.068Z,5.10
2018-06-23T03:49:33.452Z,4.63
2018-06-23T03:52:02.039Z,4.23
2018-06-23T03:54:30.443Z,4.80
2018-06-23T03:56:58.843Z,4.70
2018-06-23T03:59:27.395Z,4.73
2018-06-23T04:01:55.751Z,4.27
2018-06-23T04:04:24.107Z,5.73
2018-06-23T04:06:52.499Z,5.70
2018-06-23T04:09:20.854Z,5.40
2018-06-23T04:11:49.394Z,5.70
2018-06-23T04:14:17.774Z,5.63
2018-06-23T04:16:46.162Z,6.23
2018-06-23T04:19:14.585Z,5.60
2018-06-23T04:21:42.938Z,6.13
2018-06-23T04:24:11.283Z,5.73
2018-06-23T04:26:39.655Z,5.60
2018-06-23T04:29:08.050Z,6.27
2018-06-23T04:31:36.082Z,5.87
2018-06-23T04:34:04.471Z,7.60
2018-06-23T04:36:32.895Z,6.73
2018-06-23T04:39:01.248Z,5.10
2018-06-23T04:41:29.644Z,6.63
2018-06-23T04:43:58.003Z,6.07
2018-06-23T04:46:26.382Z,7.00
2018-06-23T04:48:54.787Z,7.47
2018-06-23T04:51:23.137Z,7.63
2018-06-23T04:53:51.491Z,7.13
2018-06-23T04:56:19.891Z,7.73
2018-06-23T04:58:48.243Z,7.27
2018-06-23T05:01:16.623Z,6.93
2018-06-23T05:03:45.019Z,8.27
2018-06-23T05:06:13.361Z,7.30
2018-06-23T05:08:41.875Z,7.03
2018-06-23T05:11:10.237Z,8.70
2018-06-23T05:13:38.592Z,9.00
2018-06-23T05:16:07.020Z,8.67
2018-06-23T05:18:35.358Z,9.00
2018-06-23T05:21:03.754Z,9.07
2018-06-23T05:23:32.118Z,10.33
2018-06-23T05:26:00.546Z,9.50
2018-06-23T05:28:28.974Z,9.80
2018-06-23T05:30:57.747Z,10.43
2018-06-23T05:33:26.129Z,10.57
2018-06-23T05:35:54.477Z,11.37
2018-06-23T05:38:22.879Z,11.20
2018-06-23T05:40:51.227Z,9.70
2018-06-23T05:43:19.745Z,10.90
2018-06-23T05:45:48.111Z,11.67
2018-06-23T05:48:16.488Z,10.60
2018-06-23T05:50:44.900Z,13.40
2018-06-23T05:53:13.261Z,12.00
2018-06-23T05:55:41.632Z,11.57
2018-06-23T05:58:10.238Z,11.50
2018-06-23T06:00:38.673Z,10.10
2018-06-23T06:03:07.023Z,11.20
2018-06-23T06:05:35.415Z,11.10
2018-06-23T06:08:03.818Z,10.23
2018-06-23T06:10:32.192Z,9.80
2018-06-23T06:13:00.759Z,11.20
2018-06-23T06:15:29.160Z,9.43
2018-06-23T06:17:57.540Z,10.60
2018-06-23T06:20:25.930Z,10.30
2018-06-23T06:22:54.270Z,11.20
2018-06-23T06:25:22.791Z,9.80
2018-06-23T06:27:51.194Z,10.17
2018-06-23T06:30:19.597Z,10.43
2018-06-23T06:32:47.983Z,10.57
2018-06-23T06:35:16.366Z,10.80
2018-06-23T06:37:44.728Z,10.33
2018-06-23T06:40:13.247Z,10.50
2018-06-23T06:42:41.628Z,12.10
2018-06-23T06:45:09.975Z,9.97
2018-06-23T06:47:38.350Z,12.50
2018-06-23T06:50:06.747Z,12.37
2018-06-23T06:52:35.142Z,10.30
2018-06-23T06:55:03.784Z,9.90
2018-06-23T06:57:32.183Z,11.43
2018-06-23T07:00:00.614Z,12.37
2018-06-23T07:02:29.150Z,10.33
2018-06-23T07:04:57.518Z,11.73
2018-06-23T07:07:25.884Z,10.33
2018-06-23T07:09:54.422Z,11.20
2018-06-23T07:12:22.790Z,19.70
2018-06-23T07:14:51.141Z,13.43
2018-06-23T07:17:19.527Z,8.70
2018-06-23T07:19:47.883Z,8.93
2018-06-23T07:22:16.274Z,9.23
2018-06-23T07:24:44.655Z,9.27
2018-06-23T07:27:13.018Z,8.10
2018-06-23T07:29:41.279Z,9.40
2018-06-23T07:32:09.635Z,7.87
2018-06-23T07:34:38.073Z,10.73
2018-06-23T07:37:06.551Z,22.97
2018-06-23T07:39:34.922Z,12.40
2018-06-23T07:42:03.408Z,10.43
2018-06-23T07:44:31.959Z,10.43
2018-06-23T07:47:00.332Z,8.97
2018-06-23T07:49:28.711Z,8.60
2018-06-23T07:51:57.092Z,9.17
2018-06-23T07:54:25.466Z,9.40
2018-06-23T07:56:53.814Z,8.30
2018-06-23T07:59:22.182Z,7.77
2018-06-23T08:01:50.547Z,7.67
2018-06-23T08:04:18.916Z,7.93
2018-06-23T08:06:47.282Z,7.63
2018-06-23T08:09:15.631Z,7.83
2018-06-23T08:11:44.193Z,7.57
2018-06-23T08:14:12.518Z,7.70
2018-06-23T08:16:40.902Z,7.40
2018-06-23T08:19:09.423Z,7.17
2018-06-23T08:21:37.855Z,6.70
2018-06-23T08:24:06.360Z,7.43
2018-06-23T08:26:35.006Z,7.67
2018-06-23T08:29:03.350Z,6.03
2018-06-23T08:31:31.702Z,6.90
2018-06-23T08:34:00.085Z,5.60
2018-06-23T08:36:28.462Z,6.73
2018-06-23T08:38:57.023Z,7.10
2018-06-23T08:41:25.426Z,6.33
2018-06-23T08:43:53.821Z,6.53
2018-06-23T08:46:22.343Z,6.20
2018-06-23T08:48:50.758Z,7.00
2018-06-23T08:51:19.116Z,6.10
2018-06-23T08:53:47.510Z,6.80
2018-06-23T08:56:15.900Z,6.20
2018-06-23T08:58:44.315Z,6.40
2018-06-23T09:01:12.680Z,6.37
2018-06-23T09:03:41.041Z,6.70
2018-06-23T09:06:09.452Z,6.10
2018-06-23T09:08:37.796Z,5.23
2018-06-23T09:11:06.189Z,6.43
2018-06-23T09:13:34.561Z,5.97
2018-06-23T09:16:02.946Z,6.07
2018-06-23T09:18:31.343Z,5.23
2018-06-23T09:20:59.719Z,5.50
2018-06-23T09:23:28.143Z,8.40
2018-06-23T09:25:56.568Z,8.63
2018-06-23T09:28:24.923Z,6.43
2018-06-23T09:30:53.442Z,5.57
2018-06-23T09:33:21.870Z,5.27
2018-06-23T09:35:50.267Z,5.23
2018-06-23T09:38:18.633Z,5.60
2018-06-23T09:40:46.986Z,5.40
2018-06-23T09:43:15.371Z,5.30
2018-06-23T09:45:43.897Z,5.57
2018-06-23T09:48:12.268Z,4.67
2018-06-23T09:50:40.695Z,3.90
2018-06-23T09:53:09.066Z,4.30
2018-06-23T09:55:37.399Z,4.20
2018-06-23T09:58:05.775Z,5.73
2018-06-23T10:00:34.220Z,4.03
2018-06-23T10:03:02.602Z,4.70
2018-06-23T10:05:31.035Z,5.30
2018-06-23T10:08:00.367Z,4.67
2018-06-23T10:10:29.674Z,4.57
2018-06-23T10:12:58.382Z,5.90
2018-06-23T10:15:26.813Z,5.87
2018-06-23T10:17:55.123Z,3.87
2018-06-23T10:20:23.774Z,3.50
2018-06-23T10:22:52.127Z,4.03
2018-06-23T10:25:20.475Z,4.50
2018-06-23T10:27:49.029Z,4.67
2018-06-23T10:30:17.415Z,4.67
2018-06-23T10:32:45.764Z,5.30
2018-06-23T10:35:14.178Z,4.63
2018-06-23T10:37:42.555Z,3.67
2018-06-23T10:40:11.268Z,3.63
2018-06-23T10:42:39.639Z,4.73
2018-06-23T10:45:08.040Z,5.13
2018-06-23T10:47:36.449Z,3.47
2018-06-23T10:50:05.256Z,3.87
2018-06-23T10:52:33.643Z,4.87
2018-06-23T10:55:02.232Z,4.33
2018-06-23T10:57:30.651Z,4.23
2018-06-23T10:59:59.158Z,11.00
2018-06-23T11:02:27.605Z,6.47
2018-06-23T11:04:56.120Z,4.50
2018-06-23T11:07:24.380Z,5.20
2018-06-23T11:09:52.766Z,4.50
2018-06-23T11:12:21.121Z,5.70
2018-06-23T11:14:49.528Z,4.87
2018-06-23T11:17:17.903Z,4.40
2018-06-23T11:19:46.267Z,4.80
2018-06-23T11:22:14.615Z,4.30
2018-06-23T11:24:42.995Z,3.90
2018-06-23T11:27:11.357Z,4.57
2018-06-23T11:29:39.699Z,4.50
2018-06-23T11:32:08.234Z,3.97
2018-06-23T11:34:36.583Z,4.57
2018-06-23T11:37:05.624Z,3.63
2018-06-23T11:39:34.147Z,3.07
2018-06-23T11:42:02.518Z,3.53
2018-06-23T11:44:30.878Z,3.33
2018-06-23T11:46:59.539Z,3.30
2018-06-23T11:49:27.943Z,2.63
2018-06-23T11:51:56.450Z,2.63
2018-06-23T11:54:24.846Z,3.40
2018-06-23T11:56:53.192Z,3.23
2018-06-23T11:59:21.563Z,2.73
2018-06-23T12:01:49.925Z,2.40
2018-06-23T12:04:24.507Z,2.60
2018-06-23T12:06:52.589Z,2.33
2018-06-23T12:09:21.883Z,2.67
2018-06-23T12:11:50.627Z,2.53
2018-06-23T12:14:19.130Z,2.73
2018-06-23T12:16:47.508Z,3.53
2018-06-23T12:19:16.128Z,2.80
2018-06-23T12:21:44.512Z,2.40
2018-06-23T12:24:12.895Z,2.87
2018-06-23T12:26:41.295Z,4.00
2018-06-23T12:29:09.659Z,2.80
2018-06-23T12:31:38.024Z,3.00
2018-06-23T12:34:06.405Z,3.33
2018-06-23T12:36:34.772Z,2.83
2018-06-23T12:39:03.318Z,3.20
2018-06-23T12:41:31.778Z,2.90
2018-06-23T12:44:00.155Z,3.07
2018-06-23T12:46:28.538Z,2.83
2018-06-23T12:48:57.934Z,4.00
2018-06-23T12:51:26.316Z,3.10
2018-06-23T12:53:54.702Z,3.20
2018-06-23T12:56:23.096Z,3.57
2018-06-23T12:58:51.463Z,3.30
2018-06-23T13:01:19.867Z,3.77
2018-06-23T13:03:48.227Z,3.10
2018-06-23T13:06:16.582Z,3.40
2018-06-23T13:08:44.955Z,3.80
2018-06-23T13:11:13.386Z,3.30
2018-06-23T13:13:41.857Z,3.77
2018-06-23T13:16:10.356Z,25.40
2018-06-23T13:18:38.717Z,5.90
2018-06-23T13:21:07.131Z,4.30
2018-06-23T13:23:35.522Z,4.30
2018-06-23T13:26:03.928Z,3.60
2018-06-23T13:28:32.296Z,3.83
2018-06-23T13:31:00.679Z,4.40
2018-06-23T13:33:29.038Z,4.37
2018-06-23T13:35:57.438Z,4.67
2018-06-23T13:38:25.972Z,4.57
2018-06-23T13:40:54.440Z,5.80
2018-06-23T13:43:22.811Z,4.33
2018-06-23T13:45:51.211Z,4.40
2018-06-23T13:48:19.575Z,4.80
2018-06-23T13:50:47.951Z,7.80
2018-06-23T13:53:16.515Z,6.20
2018-06-23T13:55:44.913Z,9.83
2018-06-23T13:58:13.322Z,5.33
2018-06-23T14:00:41.762Z,5.33
2018-06-23T14:03:10.141Z,4.30
2018-06-23T14:05:38.570Z,5.00
2018-06-23T14:08:06.950Z,5.10
2018-06-23T14:10:35.014Z,5.57
2018-06-23T14:13:03.426Z,4.83
2018-06-23T14:15:31.998Z,4.90
2018-06-23T14:18:00.388Z,8.03
2018-06-23T14:20:28.792Z,8.13
2018-06-23T14:22:57.403Z,6.83
2018-06-23T14:25:25.783Z,5.30
2018-06-23T14:27:54.147Z,5.07
2018-06-23T14:30:22.519Z,10.63
2018-06-23T14:32:50.876Z,5.50
2018-06-23T14:35:19.254Z,5.07
2018-06-23T14:37:47.783Z,5.20
2018-06-23T14:40:16.197Z,6.17
2018-06-23T14:42:44.552Z,7.17
2018-06-23T14:45:12.954Z,6.23
2018-06-23T14:47:41.334Z,6.07
2018-06-23T14:50:09.897Z,6.50
2018-06-23T14:52:38.252Z,6.87
2018-06-23T14:55:06.660Z,5.87
2018-06-23T14:57:35.071Z,6.30
2018-06-23T15:00:03.724Z,7.03
2018-06-23T15:02:32.150Z,6.87
2018-06-23T15:05:00.574Z,6.80
2018-06-23T15:07:28.826Z,7.03
2018-06-23T15:10:08.427Z,5.90
2018-06-23T15:12:48.315Z,8.70
2018-06-23T15:15:16.699Z,6.43
2018-06-23T15:17:45.066Z,6.03
2018-06-23T15:20:13.599Z,6.33
2018-06-23T15:22:42.362Z,6.23
2018-06-23T15:25:10.711Z,6.17
2018-06-23T15:27:39.279Z,5.60
2018-06-23T15:30:07.728Z,5.40
2018-06-23T15:32:36.103Z,5.60
2018-06-23T15:35:04.752Z,6.77
2018-06-23T15:37:33.110Z,6.30
2018-06-23T15:40:01.507Z,5.20
2018-06-23T15:42:30.086Z,8.93
2018-06-23T15:44:58.484Z,8.30
2018-06-23T15:47:26.932Z,10.00
2018-06-23T15:49:55.383Z,7.60
2018-06-23T15:52:23.723Z,5.60
2018-06-23T15:54:52.107Z,5.73
2018-06-23T15:57:20.459Z,5.90
2018-06-23T15:59:48.839Z,6.23
2018-06-23T16:02:17.259Z,5.10
2018-06-23T16:04:45.619Z,4.73
2018-06-23T16:07:13.978Z,6.77
2018-06-23T16:09:42.390Z,8.37
2018-06-23T16:12:10.740Z,8.17
2018-06-23T16:14:39.266Z,5.83
2018-06-23T16:17:07.627Z,6.83
2018-06-23T16:19:35.995Z,7.30
2018-06-23T16:22:04.566Z,6.07
2018-06-23T16:24:32.952Z,5.50
2018-06-23T16:27:01.381Z,6.47
2018-06-23T16:29:29.808Z,6.50
2018-06-23T16:31:58.214Z,6.53
2018-06-23T16:34:26.588Z,6.40
2018-06-23T16:36:54.980Z,7.33
2018-06-23T16:39:23.355Z,5.43
2018-06-23T16:41:51.759Z,5.87
2018-06-23T16:44:20.263Z,5.40
2018-06-23T16:46:48.646Z,6.17
2018-06-23T16:49:17.028Z,5.60
2018-06-23T16:51:45.412Z,8.00
2018-06-23T16:54:13.779Z,8.13
2018-06-23T16:56:42.219Z,6.17
2018-06-23T16:59:10.530Z,5.60
2018-06-23T17:01:38.879Z,5.80
2018-06-23T17:04:07.265Z,5.23
2018-06-23T17:06:35.790Z,5.70
2018-06-23T17:09:06.563Z,4.70
2018-06-23T17:11:35.083Z,5.23
2018-06-23T17:14:03.456Z,5.30
2018-06-23T17:16:31.851Z,4.60
2018-06-23T17:19:00.235Z,5.83
2018-06-23T17:21:28.620Z,4.60
2018-06-23T17:23:57.326Z,5.80
2018-06-23T17:26:25.706Z,6.73
2018-06-23T17:28:54.144Z,7.37
2018-06-23T17:31:22.583Z,5.60
2018-06-23T17:33:51.156Z,5.00
2018-06-23T17:36:19.554Z,4.00
2018-06-23T17:38:48.095Z,4.87
2018-06-23T17:41:19.728Z,7.17
2018-06-23T17:43:48.488Z,4.37
2018-06-23T17:46:17.086Z,6.60
2018-06-23T17:48:45.518Z,9.87
2018-06-23T17:51:14.083Z,7.57
2018-06-23T17:53:42.454Z,4.77
2018-06-23T17:56:10.826Z,4.60
2018-06-23T17:58:39.230Z,4.50
2018-06-23T18:01:07.619Z,4.00
2018-06-23T18:03:35.986Z,3.70
2018-06-23T18:06:04.504Z,4.40
2018-06-23T18:08:32.880Z,4.23
2018-06-23T18:11:01.271Z,4.33
2018-06-23T18:13:29.815Z,5.47
2018-06-23T18:15:58.205Z,4.77
2018-06-23T18:18:26.574Z,4.50
2018-06-23T18:20:54.968Z,5.73
2018-06-23T18:23:23.331Z,7.77
2018-06-23T18:25:51.699Z,8.23
2018-06-23T18:28:20.075Z,4.07
2018-06-23T18:30:48.431Z,4.60
2018-06-23T18:33:16.810Z,4.27
2018-06-23T18:35:45.339Z,2.90
2018-06-23T18:38:13.739Z,3.57
2018-06-23T18:40:42.155Z,3.57
2018-06-23T18:43:10.541Z,3.83
2018-06-23T18:45:38.908Z,3.40
2018-06-23T18:48:07.299Z,3.10
2018-06-23T18:50:35.823Z,3.13
2018-06-23T18:53:04.222Z,3.40
2018-06-23T18:55:32.603Z,3.87
2018-06-23T18:58:01.013Z,3.43
2018-06-23T19:00:29.400Z,3.40
2018-06-23T19:02:58.002Z,4.13
2018-06-23T19:05:26.416Z,8.00
2018-06-23T19:07:54.791Z,3.40
2018-06-23T19:10:23.330Z,3.93
2018-06-23T19:12:51.667Z,3.60
2018-06-23T19:15:20.013Z,3.77
2018-06-23T19:17:48.387Z,4.40
2018-06-23T19:20:16.814Z,4.03
2018-06-23T19:22:45.207Z,2.97
2018-06-23T19:25:13.596Z,3.30
2018-06-23T19:27:41.671Z,2.80
2018-06-23T19:30:10.227Z,3.50
2018-06-23T19:32:38.588Z,3.87
2018-06-23T19:35:06.977Z,14.53
2018-06-23T19:37:35.379Z,7.90
2018-06-23T19:40:03.855Z,5.10
2018-06-23T19:42:32.412Z,4.50
2018-06-23T19:45:01.680Z,3.80
2018-06-23T19:47:31.190Z,4.10
2018-06-23T19:49:59.664Z,4.43
2018-06-23T19:52:28.083Z,4.60
2018-06-23T19:54:56.463Z,4.10
2018-06-23T19:57:24.982Z,4.47
2018-06-23T19:59:53.367Z,3.90
2018-06-23T20:02:21.714Z,13.70
2018-06-23T20:04:50.113Z,7.50
2018-06-23T20:07:18.503Z,4.70
2018-06-23T20:09:46.904Z,4.40
2018-06-23T20:12:15.296Z,4.53
2018-06-23T20:14:43.768Z,4.13
2018-06-23T20:17:12.174Z,4.20
2018-06-23T20:19:40.581Z,4.37
2018-06-23T20:22:08.969Z,4.03
2018-06-23T20:24:37.386Z,4.37
2018-06-23T20:27:05.767Z,4.67
2018-06-23T20:29:34.535Z,4.97
2018-06-23T20:32:02.915Z,4.67
2018-06-23T20:34:31.315Z,4.90
2018-06-23T20:36:59.772Z,3.90
2018-06-23T20:39:28.375Z,4.07
2018-06-23T20:41:56.788Z,4.93
2018-06-23T20:44:25.191Z,5.10
2018-06-23T20:46:53.588Z,4.60
2018-06-23T20:49:22.238Z,4.90
2018-06-23T20:51:50.665Z,5.30
2018-06-23T20:54:19.007Z,4.40
2018-06-23T20:56:47.572Z,4.43
2018-06-23T20:59:15.939Z,10.70
2018-06-23T21:01:44.315Z,17.60
2018-06-23T21:04:12.849Z,7.90
2018-06-23T21:06:41.311Z,5.37
2018-06-23T21:09:10.702Z,5.20
2018-06-23T21:11:39.179Z,5.00
2018-06-23T21:14:07.744Z,6.03
2018-06-23T21:16:36.159Z,5.30
2018-06-23T21:19:04.618Z,5.23
2018-06-23T21:21:33.067Z,5.00
2018-06-23T21:24:01.429Z,5.30
2018-06-23T21:26:29.837Z,4.90
2018-06-23T21:28:58.494Z,5.10
2018-06-23T21:31:26.871Z,5.63
2018-06-23T21:33:55.252Z,4.83
2018-06-23T21:36:23.619Z,5.73
2018-06-23T21:38:51.983Z,5.40
2018-06-23T21:41:20.350Z,6.00
2018-06-23T21:43:48.866Z,7.00
2018-06-23T21:46:17.224Z,7.20
2018-06-23T21:48:45.591Z,8.13
2018-06-23T21:51:14.151Z,6.70
2018-06-23T21:53:42.514Z,6.40
2018-06-23T21:56:10.883Z,7.23
2018-06-23T21:58:39.245Z,7.00
2018-06-23T22:01:07.691Z,6.63
2018-06-23T22:03:36.066Z,6.67
2018-06-23T22:06:04.527Z,7.47
2018-06-23T22:08:32.907Z,7.50
2018-06-23T22:11:01.321Z,7.20
2018-06-23T22:13:29.747Z,6.80
2018-06-23T22:15:58.125Z,6.47
2018-06-23T22:18:26.380Z,7.57
2018-06-23T22:20:54.730Z,6.83
2018-06-23T22:23:23.118Z,5.90
2018-06-23T22:25:51.499Z,6.90
2018-06-23T22:28:19.907Z,6.37
2018-06-23T22:30:48.469Z,6.53
2018-06-23T22:33:16.532Z,6.83
2018-06-23T22:35:44.883Z,6.20
2018-06-23T22:38:13.307Z,6.93
2018-06-23T22:40:41.709Z,6.57
2018-06-23T22:43:10.267Z,6.47
2018-06-23T22:45:38.653Z,6.30
2018-06-23T22:48:07.015Z,6.47
2018-06-23T22:50:35.382Z,6.30
2018-06-23T22:53:03.797Z,7.30
2018-06-23T22:55:32.219Z,7.63
2018-06-23T22:58:00.815Z,8.60
2018-06-23T23:00:29.232Z,8.17
2018-06-23T23:02:57.645Z,8.17
2018-06-23T23:05:26.175Z,8.27
2018-06-23T23:07:54.548Z,10.40
2018-06-23T23:10:22.937Z,8.90
2018-06-23T23:12:51.374Z,7.87
2018-06-23T23:15:19.717Z,8.03
2018-06-23T23:17:47.802Z,7.33
2018-06-23T23:20:16.327Z,7.77
2018-06-23T23:22:44.696Z,7.90
2018-06-23T23:25:13.057Z,7.67
2018-06-23T23:27:41.427Z,7.37
2018-06-23T23:30:09.795Z,8.40
2018-06-23T23:32:38.323Z,7.20
2018-06-23T23:35:06.832Z,7.20
2018-06-23T23:37:35.281Z,6.50
2018-06-23T23:40:03.731Z,7.67
2018-06-23T23:42:32.089Z,7.53
2018-06-23T23:45:00.452Z,7.07
2018-06-23T23:47:28.986Z,7.53
2018-06-23T23:49:57.358Z,7.97
2018-06-23T23:52:25.763Z,7.90
2018-06-23T23:54:54.144Z,6.93
2018-06-23T23:57:22.504Z,7.63
2018-06-23T23:59:50.875Z,8.63
